sensor_id;sensor_type;location;lat;lon;timestamp;temperature;humidity
4103;DHT22;2065;49.790;9.620;2022-08-11T00:01:04;25.10;32.60
4103;DHT22;2065;49.790;9.620;2022-08-11T00:03:33;25.30;32.70
4103;DHT22;2065;49.790;9.620;2022-08-11T00:06:00;25.40;32.70
4103;DHT22;2065;49.790;9.620;2022-08-11T00:08:30;25.50;32.80
4103;DHT22;2065;49.790;9.620;2022-08-11T00:10:59;25.50;32.50
4103;DHT22;2065;49.790;9.620;2022-08-11T00:13:33;25.30;32.90
4103;DHT22;2065;49.790;9.620;2022-08-11T00:16:02;25.20;33.40
4103;DHT22;2065;49.790;9.620;2022-08-11T00:18:56;25.20;33.30
4103;DHT22;2065;49.790;9.620;2022-08-11T00:22:19;25.30;33.80
4103;DHT22;2065;49.790;9.620;2022-08-11T00:24:48;25.30;34.30
4103;DHT22;2065;49.790;9.620;2022-08-11T00:27:15;25.30;33.70
4103;DHT22;2065;49.790;9.620;2022-08-11T00:29:51;25.30;33.70
4103;DHT22;2065;49.790;9.620;2022-08-11T00:32:21;25.20;33.70
4103;DHT22;2065;49.790;9.620;2022-08-11T00:34:48;25.20;33.60
4103;DHT22;2065;49.790;9.620;2022-08-11T00:37:18;25.10;33.10
4103;DHT22;2065;49.790;9.620;2022-08-11T00:39:48;24.90;32.90
4103;DHT22;2065;49.790;9.620;2022-08-11T00:42:26;24.80;33.30
4103;DHT22;2065;49.790;9.620;2022-08-11T00:45:03;24.80;33.40
4103;DHT22;2065;49.790;9.620;2022-08-11T00:51:03;24.80;34.00
4103;DHT22;2065;49.790;9.620;2022-08-11T00:53:38;24.80;33.80
4103;DHT22;2065;49.790;9.620;2022-08-11T01:02:11;24.70;34.20
4103;DHT22;2065;49.790;9.620;2022-08-11T01:05:13;24.30;34.40
4103;DHT22;2065;49.790;9.620;2022-08-11T01:08:27;24.20;34.40
4103;DHT22;2065;49.790;9.620;2022-08-11T01:14:16;24.30;34.60
4103;DHT22;2065;49.790;9.620;2022-08-11T01:17:04;24.40;34.90
4103;DHT22;2065;49.790;9.620;2022-08-11T01:23:13;24.40;35.30
4103;DHT22;2065;49.790;9.620;2022-08-11T01:26:23;24.40;35.40
4103;DHT22;2065;49.790;9.620;2022-08-11T01:32:43;24.30;34.90
4103;DHT22;2065;49.790;9.620;2022-08-11T01:35:32;24.30;34.80
4103;DHT22;2065;49.790;9.620;2022-08-11T01:38:42;24.30;34.60
4103;DHT22;2065;49.790;9.620;2022-08-11T01:41:36;24.20;35.00
4103;DHT22;2065;49.790;9.620;2022-08-11T01:44:52;24.20;35.10
4103;DHT22;2065;49.790;9.620;2022-08-11T01:47:35;24.10;35.50
4103;DHT22;2065;49.790;9.620;2022-08-11T01:50:34;24.00;36.00
4103;DHT22;2065;49.790;9.620;2022-08-11T01:53:09;24.00;36.20
4103;DHT22;2065;49.790;9.620;2022-08-11T01:55:42;24.00;36.40
4103;DHT22;2065;49.790;9.620;2022-08-11T01:58:22;24.00;36.50
4103;DHT22;2065;49.790;9.620;2022-08-11T02:00:57;23.90;36.60
4103;DHT22;2065;49.790;9.620;2022-08-11T02:03:35;23.90;36.70
4103;DHT22;2065;49.790;9.620;2022-08-11T02:06:33;23.90;37.10
4103;DHT22;2065;49.790;9.620;2022-08-11T02:09:28;23.80;37.30
4103;DHT22;2065;49.790;9.620;2022-08-11T02:12:13;23.80;37.30
4103;DHT22;2065;49.790;9.620;2022-08-11T02:14:44;23.70;37.50
4103;DHT22;2065;49.790;9.620;2022-08-11T02:17:18;23.70;37.30
4103;DHT22;2065;49.790;9.620;2022-08-11T02:19:53;23.70;37.80
4103;DHT22;2065;49.790;9.620;2022-08-11T02:22:50;23.60;38.00
4103;DHT22;2065;49.790;9.620;2022-08-11T02:25:42;23.50;38.30
4103;DHT22;2065;49.790;9.620;2022-08-11T02:28:20;23.50;38.40
4103;DHT22;2065;49.790;9.620;2022-08-11T02:31:02;23.40;38.40
4103;DHT22;2065;49.790;9.620;2022-08-11T02:33:53;23.40;39.00
4103;DHT22;2065;49.790;9.620;2022-08-11T02:36:33;23.40;39.50
4103;DHT22;2065;49.790;9.620;2022-08-11T02:39:08;23.30;40.00
4103;DHT22;2065;49.790;9.620;2022-08-11T02:41:47;23.30;40.00
4103;DHT22;2065;49.790;9.620;2022-08-11T02:45:14;23.30;39.60
4103;DHT22;2065;49.790;9.620;2022-08-11T02:47:53;23.20;39.30
4103;DHT22;2065;49.790;9.620;2022-08-11T02:50:46;23.20;39.40
4103;DHT22;2065;49.790;9.620;2022-08-11T02:53:18;23.10;39.30
4103;DHT22;2065;49.790;9.620;2022-08-11T02:55:59;23.10;40.00
4103;DHT22;2065;49.790;9.620;2022-08-11T02:58:51;23.10;40.30
4103;DHT22;2065;49.790;9.620;2022-08-11T03:01:42;23.10;39.90
4103;DHT22;2065;49.790;9.620;2022-08-11T03:04:21;23.00;39.60
4103;DHT22;2065;49.790;9.620;2022-08-11T03:06:58;23.00;39.50
4103;DHT22;2065;49.790;9.620;2022-08-11T03:09:41;23.00;39.40
4103;DHT22;2065;49.790;9.620;2022-08-11T03:12:39;22.90;40.00
4103;DHT22;2065;49.790;9.620;2022-08-11T03:15:28;22.90;40.00
4103;DHT22;2065;49.790;9.620;2022-08-11T03:18:30;22.90;40.10
4103;DHT22;2065;49.790;9.620;2022-08-11T03:21:06;22.80;40.20
4103;DHT22;2065;49.790;9.620;2022-08-11T03:23:40;22.80;41.00
4103;DHT22;2065;49.790;9.620;2022-08-11T03:26:36;22.70;41.10
4103;DHT22;2065;49.790;9.620;2022-08-11T03:29:20;22.70;41.20
4103;DHT22;2065;49.790;9.620;2022-08-11T03:31:55;22.70;41.50
4103;DHT22;2065;49.790;9.620;2022-08-11T03:34:26;22.60;41.70
4103;DHT22;2065;49.790;9.620;2022-08-11T03:37:05;22.60;42.00
4103;DHT22;2065;49.790;9.620;2022-08-11T03:39:46;22.60;42.10
4103;DHT22;2065;49.790;9.620;2022-08-11T03:42:19;22.50;42.00
4103;DHT22;2065;49.790;9.620;2022-08-11T03:45:02;22.50;41.80
4103;DHT22;2065;49.790;9.620;2022-08-11T03:47:57;22.50;41.40
4103;DHT22;2065;49.790;9.620;2022-08-11T03:50:37;22.50;41.70
4103;DHT22;2065;49.790;9.620;2022-08-11T03:53:16;22.50;42.30
4103;DHT22;2065;49.790;9.620;2022-08-11T03:59:15;22.40;42.50
4103;DHT22;2065;49.790;9.620;2022-08-11T04:02:26;22.40;42.70
4103;DHT22;2065;49.790;9.620;2022-08-11T04:05:12;22.30;43.30
4103;DHT22;2065;49.790;9.620;2022-08-11T04:08:19;22.30;43.40
4103;DHT22;2065;49.790;9.620;2022-08-11T04:14:22;22.30;44.00
4103;DHT22;2065;49.790;9.620;2022-08-11T04:20:28;22.10;43.80
4103;DHT22;2065;49.790;9.620;2022-08-11T04:23:17;22.10;43.70
4103;DHT22;2065;49.790;9.620;2022-08-11T04:26:24;22.10;43.50
4103;DHT22;2065;49.790;9.620;2022-08-11T04:29:16;22.10;44.20
4103;DHT22;2065;49.790;9.620;2022-08-11T04:32:02;22.10;43.80
4103;DHT22;2065;49.790;9.620;2022-08-11T04:35:07;22.10;42.60
4103;DHT22;2065;49.790;9.620;2022-08-11T04:37:54;22.00;42.20
4103;DHT22;2065;49.790;9.620;2022-08-11T04:40:49;22.00;42.50
4103;DHT22;2065;49.790;9.620;2022-08-11T04:47:12;21.90;43.50
4103;DHT22;2065;49.790;9.620;2022-08-11T04:50:21;21.90;44.80
4103;DHT22;2065;49.790;9.620;2022-08-11T04:53:32;21.90;44.80
4103;DHT22;2065;49.790;9.620;2022-08-11T04:56:20;21.90;44.80
4103;DHT22;2065;49.790;9.620;2022-08-11T04:59:42;21.90;
4103;DHT22;2065;49.790;9.620;2022-08-11T05:06:33;21.90;45.20
4103;DHT22;2065;49.790;9.620;2022-08-11T05:09:20;21.90;44.90
4103;DHT22;2065;49.790;9.620;2022-08-11T05:12:05;21.80;44.50
4103;DHT22;2065;49.790;9.620;2022-08-11T05:14:47;21.90;44.50
4103;DHT22;2065;49.790;9.620;2022-08-11T05:17:43;21.90;44.10
4103;DHT22;2065;49.790;9.620;2022-08-11T05:20:56;21.90;44.20
4103;DHT22;2065;49.790;9.620;2022-08-11T05:23:45;22.00;44.10
4103;DHT22;2065;49.790;9.620;2022-08-11T05:26:57;22.00;44.60
4103;DHT22;2065;49.790;9.620;2022-08-11T05:29:46;22.00;44.60
4103;DHT22;2065;49.790;9.620;2022-08-11T05:32:59;22.00;44.70
4103;DHT22;2065;49.790;9.620;2022-08-11T05:35:48;22.00;44.90
4103;DHT22;2065;49.790;9.620;2022-08-11T05:38:19;22.00;44.80
4103;DHT22;2065;49.790;9.620;2022-08-11T05:41:10;22.00;44.90
4103;DHT22;2065;49.790;9.620;2022-08-11T05:43:58;22.10;44.70
4103;DHT22;2065;49.790;9.620;2022-08-11T05:46:44;22.10;45.00
4103;DHT22;2065;49.790;9.620;2022-08-11T05:49:31;22.10;44.80
4103;DHT22;2065;49.790;9.620;2022-08-11T05:52:22;22.10;44.80
4103;DHT22;2065;49.790;9.620;2022-08-11T05:55:08;22.10;44.70
4103;DHT22;2065;49.790;9.620;2022-08-11T05:57:56;22.20;44.60
4103;DHT22;2065;49.790;9.620;2022-08-11T06:00:25;22.20;44.60
4103;DHT22;2065;49.790;9.620;2022-08-11T06:02:55;22.30;44.70
4103;DHT22;2065;49.790;9.620;2022-08-11T06:05:32;22.30;44.60
4103;DHT22;2065;49.790;9.620;2022-08-11T06:07:59;22.30;44.30
4103;DHT22;2065;49.790;9.620;2022-08-11T06:10:29;22.40;44.20
4103;DHT22;2065;49.790;9.620;2022-08-11T06:13:00;22.40;44.00
4103;DHT22;2065;49.790;9.620;2022-08-11T06:15:29;22.40;44.30
4103;DHT22;2065;49.790;9.620;2022-08-11T06:17:59;22.50;44.20
4103;DHT22;2065;49.790;9.620;2022-08-11T06:20:28;22.50;43.80
4103;DHT22;2065;49.790;9.620;2022-08-11T06:23:03;22.50;43.80
4103;DHT22;2065;49.790;9.620;2022-08-11T06:25:30;22.50;43.50
4103;DHT22;2065;49.790;9.620;2022-08-11T06:28:04;22.40;43.80
4103;DHT22;2065;49.790;9.620;2022-08-11T06:30:57;22.50;42.40
4103;DHT22;2065;49.790;9.620;2022-08-11T06:33:30;22.70;42.50
4103;DHT22;2065;49.790;9.620;2022-08-11T06:36:03;22.80;42.30
4103;DHT22;2065;49.790;9.620;2022-08-11T06:39:01;22.90;42.40
4103;DHT22;2065;49.790;9.620;2022-08-11T06:41:38;23.10;42.00
4103;DHT22;2065;49.790;9.620;2022-08-11T06:44:14;23.20;41.50
4103;DHT22;2065;49.790;9.620;2022-08-11T06:46:45;23.40;41.20
4103;DHT22;2065;49.790;9.620;2022-08-11T06:49:15;23.50;41.30
4103;DHT22;2065;49.790;9.620;2022-08-11T06:52:03;23.60;41.60
4103;DHT22;2065;49.790;9.620;2022-08-11T06:54:55;23.70;40.80
4103;DHT22;2065;49.790;9.620;2022-08-11T06:57:32;23.90;40.20
4103;DHT22;2065;49.790;9.620;2022-08-11T07:00:20;24.00;39.60
4103;DHT22;2065;49.790;9.620;2022-08-11T07:03:01;24.20;39.50
4103;DHT22;2065;49.790;9.620;2022-08-11T07:05:39;24.40;39.30
4103;DHT22;2065;49.790;9.620;2022-08-11T07:08:48;24.40;39.60
4103;DHT22;2065;49.790;9.620;2022-08-11T07:12:01;24.60;39.10
4103;DHT22;2065;49.790;9.620;2022-08-11T07:15:01;24.80;39.00
4103;DHT22;2065;49.790;9.620;2022-08-11T07:17:50;24.70;37.70
4103;DHT22;2065;49.790;9.620;2022-08-11T07:20:39;24.80;38.00
4103;DHT22;2065;49.790;9.620;2022-08-11T07:23:25;24.80;38.00
4103;DHT22;2065;49.790;9.620;2022-08-11T07:26:12;25.10;38.40
4103;DHT22;2065;49.790;9.620;2022-08-11T07:28:59;25.30;37.90
4103;DHT22;2065;49.790;9.620;2022-08-11T07:31:32;25.50;37.90
4103;DHT22;2065;49.790;9.620;2022-08-11T07:34:14;25.70;37.60
4103;DHT22;2065;49.790;9.620;2022-08-11T07:36:47;25.70;37.20
4103;DHT22;2065;49.790;9.620;2022-08-11T07:39:18;25.80;37.30
4103;DHT22;2065;49.790;9.620;2022-08-11T07:41:47;26.00;37.70
4103;DHT22;2065;49.790;9.620;2022-08-11T07:44:17;26.10;36.70
4103;DHT22;2065;49.790;9.620;2022-08-11T07:46:47;26.30;36.70
4103;DHT22;2065;49.790;9.620;2022-08-11T07:49:37;26.30;36.40
4103;DHT22;2065;49.790;9.620;2022-08-11T07:52:22;26.30;36.60
4103;DHT22;2065;49.790;9.620;2022-08-11T07:54:56;26.50;36.80
4103;DHT22;2065;49.790;9.620;2022-08-11T07:57:24;26.70;36.60
4103;DHT22;2065;49.790;9.620;2022-08-11T08:00:14;26.80;36.20
4103;DHT22;2065;49.790;9.620;2022-08-11T08:02:59;26.90;35.70
4103;DHT22;2065;49.790;9.620;2022-08-11T08:05:46;26.90;35.60
4103;DHT22;2065;49.790;9.620;2022-08-11T08:08:57;27.10;35.50
4103;DHT22;2065;49.790;9.620;2022-08-11T08:11:43;27.30;35.70
4103;DHT22;2065;49.790;9.620;2022-08-11T08:14:55;27.30;34.00
4103;DHT22;2065;49.790;9.620;2022-08-11T08:17:41;27.30;33.30
4103;DHT22;2065;49.790;9.620;2022-08-11T08:20:20;27.30;33.00
4103;DHT22;2065;49.790;9.620;2022-08-11T08:22:52;27.40;33.30
4103;DHT22;2065;49.790;9.620;2022-08-11T08:25:22;27.60;32.10
4103;DHT22;2065;49.790;9.620;2022-08-11T08:27:50;27.90;31.60
4103;DHT22;2065;49.790;9.620;2022-08-11T08:30:18;28.10;31.10
4103;DHT22;2065;49.790;9.620;2022-08-11T08:33:03;28.20;31.40
4103;DHT22;2065;49.790;9.620;2022-08-11T08:35:30;28.50;30.90
4103;DHT22;2065;49.790;9.620;2022-08-11T08:37:59;28.60;30.20
4103;DHT22;2065;49.790;9.620;2022-08-11T08:40:26;28.70;29.90
4103;DHT22;2065;49.790;9.620;2022-08-11T08:42:57;28.80;29.70
4103;DHT22;2065;49.790;9.620;2022-08-11T08:45:27;29.00;29.70
4103;DHT22;2065;49.790;9.620;2022-08-11T08:47:58;29.20;29.10
4103;DHT22;2065;49.790;9.620;2022-08-11T08:50:29;29.20;29.30
4103;DHT22;2065;49.790;9.620;2022-08-11T08:53:13;29.20;29.30
4103;DHT22;2065;49.790;9.620;2022-08-11T08:55:45;29.40;29.30
4103;DHT22;2065;49.790;9.620;2022-08-11T08:58:14;29.60;29.00
4103;DHT22;2065;49.790;9.620;2022-08-11T09:00:45;29.80;28.90
4103;DHT22;2065;49.790;9.620;2022-08-11T09:03:13;29.70;28.30
4103;DHT22;2065;49.790;9.620;2022-08-11T09:05:40;29.90;28.40
4103;DHT22;2065;49.790;9.620;2022-08-11T09:08:34;30.20;28.20
4103;DHT22;2065;49.790;9.620;2022-08-11T09:11:03;30.40;27.50
4103;DHT22;2065;49.790;9.620;2022-08-11T09:13:48;30.50;27.20
4103;DHT22;2065;49.790;9.620;2022-08-11T09:16:22;30.40;28.00
4103;DHT22;2065;49.790;9.620;2022-08-11T09:18:50;30.50;27.10
4103;DHT22;2065;49.790;9.620;2022-08-11T09:21:18;30.50;26.60
4103;DHT22;2065;49.790;9.620;2022-08-11T09:23:49;30.70;26.60
4103;DHT22;2065;49.790;9.620;2022-08-11T09:27:04;30.80;26.40
4103;DHT22;2065;49.790;9.620;2022-08-11T09:29:32;30.60;26.60
4103;DHT22;2065;49.790;9.620;2022-08-11T09:31:59;30.60;27.10
4103;DHT22;2065;49.790;9.620;2022-08-11T09:34:27;30.70;25.70
4103;DHT22;2065;49.790;9.620;2022-08-11T09:36:54;31.10;26.10
4103;DHT22;2065;49.790;9.620;2022-08-11T09:39:41;31.20;25.00
4103;DHT22;2065;49.790;9.620;2022-08-11T09:42:26;31.40;25.30
4103;DHT22;2065;49.790;9.620;2022-08-11T09:45:15;31.40;24.70
4103;DHT22;2065;49.790;9.620;2022-08-11T09:47:42;31.50;24.80
4103;DHT22;2065;49.790;9.620;2022-08-11T09:50:15;31.70;24.30
4103;DHT22;2065;49.790;9.620;2022-08-11T09:52:43;31.60;23.80
4103;DHT22;2065;49.790;9.620;2022-08-11T09:55:14;31.60;23.80
4103;DHT22;2065;49.790;9.620;2022-08-11T09:58:38;31.70;23.30
4103;DHT22;2065;49.790;9.620;2022-08-11T10:01:05;31.80;23.60
4103;DHT22;2065;49.790;9.620;2022-08-11T10:03:35;31.80;23.10
4103;DHT22;2065;49.790;9.620;2022-08-11T10:06:30;31.90;23.50
4103;DHT22;2065;49.790;9.620;2022-08-11T10:10:08;32.20;23.10
4103;DHT22;2065;49.790;9.620;2022-08-11T10:13:04;32.50;22.90
4103;DHT22;2065;49.790;9.620;2022-08-11T10:15:32;32.90;23.20
4103;DHT22;2065;49.790;9.620;2022-08-11T10:18:08;33.00;22.40
4103;DHT22;2065;49.790;9.620;2022-08-11T10:20:59;33.10;22.40
4103;DHT22;2065;49.790;9.620;2022-08-11T10:23:29;33.20;21.40
4103;DHT22;2065;49.790;9.620;2022-08-11T10:26:15;33.20;22.70
4103;DHT22;2065;49.790;9.620;2022-08-11T10:29:04;33.10;21.50
4103;DHT22;2065;49.790;9.620;2022-08-11T10:31:54;33.30;21.70
4103;DHT22;2065;49.790;9.620;2022-08-11T10:34:39;33.40;21.90
4103;DHT22;2065;49.790;9.620;2022-08-11T10:37:07;33.60;20.60
4103;DHT22;2065;49.790;9.620;2022-08-11T10:39:38;33.50;20.30
4103;DHT22;2065;49.790;9.620;2022-08-11T10:42:31;33.70;20.80
4103;DHT22;2065;49.790;9.620;2022-08-11T10:45:17;33.90;20.80
4103;DHT22;2065;49.790;9.620;2022-08-11T10:48:04;34.00;20.70
4103;DHT22;2065;49.790;9.620;2022-08-11T10:50:56;34.20;20.60
4103;DHT22;2065;49.790;9.620;2022-08-11T10:53:40;34.30;20.20
4103;DHT22;2065;49.790;9.620;2022-08-11T10:56:27;34.60;20.20
4103;DHT22;2065;49.790;9.620;2022-08-11T10:59:13;34.70;20.40
4103;DHT22;2065;49.790;9.620;2022-08-11T11:01:44;34.80;20.50
4103;DHT22;2065;49.790;9.620;2022-08-11T11:04:16;34.90;20.10
4103;DHT22;2065;49.790;9.620;2022-08-11T11:06:49;34.70;20.20
4103;DHT22;2065;49.790;9.620;2022-08-11T11:09:22;34.80;20.40
4103;DHT22;2065;49.790;9.620;2022-08-11T11:11:55;34.80;19.70
4103;DHT22;2065;49.790;9.620;2022-08-11T11:14:44;34.60;19.80
4103;DHT22;2065;49.790;9.620;2022-08-11T11:17:39;34.90;19.50
4103;DHT22;2065;49.790;9.620;2022-08-11T11:20:23;35.10;20.00
4103;DHT22;2065;49.790;9.620;2022-08-11T11:22:54;34.80;19.90
4103;DHT22;2065;49.790;9.620;2022-08-11T11:25:31;35.00;20.30
4103;DHT22;2065;49.790;9.620;2022-08-11T11:28:27;34.70;20.30
4103;DHT22;2065;49.790;9.620;2022-08-11T11:31:09;35.00;20.40
4103;DHT22;2065;49.790;9.620;2022-08-11T11:33:57;34.60;19.10
4103;DHT22;2065;49.790;9.620;2022-08-11T11:36:33;34.60;19.20
4103;DHT22;2065;49.790;9.620;2022-08-11T11:39:05;34.90;18.80
4103;DHT22;2065;49.790;9.620;2022-08-11T11:41:33;34.90;19.00
4103;DHT22;2065;49.790;9.620;2022-08-11T11:44:01;34.70;19.00
4103;DHT22;2065;49.790;9.620;2022-08-11T11:46:53;34.90;19.30
4103;DHT22;2065;49.790;9.620;2022-08-11T11:49:23;35.10;19.40
4103;DHT22;2065;49.790;9.620;2022-08-11T11:52:18;35.50;18.80
4103;DHT22;2065;49.790;9.620;2022-08-11T11:54:46;35.50;19.10
4103;DHT22;2065;49.790;9.620;2022-08-11T11:57:16;35.40;18.50
4103;DHT22;2065;49.790;9.620;2022-08-11T12:00:03;35.40;18.30
4103;DHT22;2065;49.790;9.620;2022-08-11T12:02:55;35.50;19.10
4103;DHT22;2065;49.790;9.620;2022-08-11T12:05:26;35.30;19.10
4103;DHT22;2065;49.790;9.620;2022-08-11T12:07:54;35.40;18.80
4103;DHT22;2065;49.790;9.620;2022-08-11T12:10:43;35.50;19.30
4103;DHT22;2065;49.790;9.620;2022-08-11T12:13:12;35.70;19.30
4103;DHT22;2065;49.790;9.620;2022-08-11T12:15:57;35.70;18.70
4103;DHT22;2065;49.790;9.620;2022-08-11T12:18:50;35.80;18.50
4103;DHT22;2065;49.790;9.620;2022-08-11T12:21:20;36.00;18.50
4103;DHT22;2065;49.790;9.620;2022-08-11T12:23:48;36.20;17.50
4103;DHT22;2065;49.790;9.620;2022-08-11T12:26:58;36.20;17.60
4103;DHT22;2065;49.790;9.620;2022-08-11T12:29:45;36.30;17.40
4103;DHT22;2065;49.790;9.620;2022-08-11T12:32:13;36.20;16.80
4103;DHT22;2065;49.790;9.620;2022-08-11T12:34:40;35.90;17.40
4103;DHT22;2065;49.790;9.620;2022-08-11T12:37:09;35.90;17.60
4103;DHT22;2065;49.790;9.620;2022-08-11T12:39:41;35.90;17.50
4103;DHT22;2065;49.790;9.620;2022-08-11T12:42:28;35.80;17.70
4103;DHT22;2065;49.790;9.620;2022-08-11T12:45:14;36.00;17.30
4103;DHT22;2065;49.790;9.620;2022-08-11T12:48:03;35.70;17.40
4103;DHT22;2065;49.790;9.620;2022-08-11T12:50:52;36.10;17.90
4103;DHT22;2065;49.790;9.620;2022-08-11T12:53:44;36.00;16.80
4103;DHT22;2065;49.790;9.620;2022-08-11T12:56:12;35.90;17.30
4103;DHT22;2065;49.790;9.620;2022-08-11T12:58:58;36.10;17.80
4103;DHT22;2065;49.790;9.620;2022-08-11T13:01:44;36.50;17.00
4103;DHT22;2065;49.790;9.620;2022-08-11T13:04:55;36.60;17.30
4103;DHT22;2065;49.790;9.620;2022-08-11T16:31:27;35.40;17.40
4103;DHT22;2065;49.790;9.620;2022-08-11T16:33:55;35.30;17.20
4103;DHT22;2065;49.790;9.620;2022-08-11T16:36:23;35.30;17.10
4103;DHT22;2065;49.790;9.620;2022-08-11T16:39:09;35.30;17.10
4103;DHT22;2065;49.790;9.620;2022-08-11T16:41:39;35.10;17.60
4103;DHT22;2065;49.790;9.620;2022-08-11T16:44:27;35.20;17.50
4103;DHT22;2065;49.790;9.620;2022-08-11T16:47:16;35.20;16.90
4103;DHT22;2065;49.790;9.620;2022-08-11T16:49:47;35.10;17.10
4103;DHT22;2065;49.790;9.620;2022-08-11T16:52:17;35.10;17.40
4103;DHT22;2065;49.790;9.620;2022-08-11T16:54:44;35.20;17.50
4103;DHT22;2065;49.790;9.620;2022-08-11T16:57:15;35.20;17.60
4103;DHT22;2065;49.790;9.620;2022-08-11T17:00:03;35.00;17.70
4103;DHT22;2065;49.790;9.620;2022-08-11T17:02:36;35.00;17.50
4103;DHT22;2065;49.790;9.620;2022-08-11T17:05:23;35.10;18.10
4103;DHT22;2065;49.790;9.620;2022-08-11T17:08:08;35.30;17.70
4103;DHT22;2065;49.790;9.620;2022-08-11T17:10:56;35.30;17.70
4103;DHT22;2065;49.790;9.620;2022-08-11T17:13:45;35.30;17.80
4103;DHT22;2065;49.790;9.620;2022-08-11T17:16:16;35.30;17.90
4103;DHT22;2065;49.790;9.620;2022-08-11T17:18:49;35.10;18.20
4103;DHT22;2065;49.790;9.620;2022-08-11T17:21:20;34.80;18.30
4103;DHT22;2065;49.790;9.620;2022-08-11T17:23:52;34.70;18.30
4103;DHT22;2065;49.790;9.620;2022-08-11T17:26:23;34.50;18.40
4103;DHT22;2065;49.790;9.620;2022-08-11T17:28:54;34.70;18.50
4103;DHT22;2065;49.790;9.620;2022-08-11T17:31:23;35.00;18.90
4103;DHT22;2065;49.790;9.620;2022-08-11T17:34:12;34.80;18.00
4103;DHT22;2065;49.790;9.620;2022-08-11T17:36:57;34.80;18.20
4103;DHT22;2065;49.790;9.620;2022-08-11T17:39:28;34.80;18.20
4103;DHT22;2065;49.790;9.620;2022-08-11T17:41:57;34.80;18.70
4103;DHT22;2065;49.790;9.620;2022-08-11T17:44:43;34.60;18.00
4103;DHT22;2065;49.790;9.620;2022-08-11T17:47:29;34.50;18.30
4103;DHT22;2065;49.790;9.620;2022-08-11T17:50:16;34.50;18.30
4103;DHT22;2065;49.790;9.620;2022-08-11T17:52:44;34.40;18.10
4103;DHT22;2065;49.790;9.620;2022-08-11T17:55:30;34.40;18.60
4103;DHT22;2065;49.790;9.620;2022-08-11T17:58:16;34.50;18.60
4103;DHT22;2065;49.790;9.620;2022-08-11T18:01:02;34.50;18.30
4103;DHT22;2065;49.790;9.620;2022-08-11T18:03:31;34.50;18.70
4103;DHT22;2065;49.790;9.620;2022-08-11T18:06:01;34.50;19.00
4103;DHT22;2065;49.790;9.620;2022-08-11T18:08:30;34.50;19.10
4103;DHT22;2065;49.790;9.620;2022-08-11T18:11:16;34.40;19.30
4103;DHT22;2065;49.790;9.620;2022-08-11T18:14:05;34.40;19.40
4103;DHT22;2065;49.790;9.620;2022-08-11T18:16:51;34.40;19.80
4103;DHT22;2065;49.790;9.620;2022-08-11T18:19:35;34.30;19.80
4103;DHT22;2065;49.790;9.620;2022-08-11T18:22:24;34.20;19.70
4103;DHT22;2065;49.790;9.620;2022-08-11T18:25:12;34.10;19.60
4103;DHT22;2065;49.790;9.620;2022-08-11T18:28:00;34.00;19.80
4103;DHT22;2065;49.790;9.620;2022-08-11T18:30:49;33.90;19.80
4103;DHT22;2065;49.790;9.620;2022-08-11T18:33:40;33.80;20.00
4103;DHT22;2065;49.790;9.620;2022-08-11T18:36:30;33.60;20.10
4103;DHT22;2065;49.790;9.620;2022-08-11T18:39:19;33.60;20.40
4103;DHT22;2065;49.790;9.620;2022-08-11T18:42:09;33.50;20.10
4103;DHT22;2065;49.790;9.620;2022-08-11T18:44:58;33.30;20.20
4103;DHT22;2065;49.790;9.620;2022-08-11T18:47:44;33.20;20.40
4103;DHT22;2065;49.790;9.620;2022-08-11T18:50:29;33.00;20.30
4103;DHT22;2065;49.790;9.620;2022-08-11T18:53:14;33.00;20.30
4103;DHT22;2065;49.790;9.620;2022-08-11T18:56:01;32.80;20.50
4103;DHT22;2065;49.790;9.620;2022-08-11T18:58:47;32.70;20.50
4103;DHT22;2065;49.790;9.620;2022-08-11T19:01:35;32.70;20.70
4103;DHT22;2065;49.790;9.620;2022-08-11T19:04:20;32.30;20.40
4103;DHT22;2065;49.790;9.620;2022-08-11T19:07:07;32.20;20.70
4103;DHT22;2065;49.790;9.620;2022-08-11T19:09:53;31.70;21.10
4103;DHT22;2065;49.790;9.620;2022-08-11T19:12:41;31.60;21.30
4103;DHT22;2065;49.790;9.620;2022-08-11T19:15:29;31.40;21.60
4103;DHT22;2065;49.790;9.620;2022-08-11T19:18:17;31.00;21.60
4103;DHT22;2065;49.790;9.620;2022-08-11T19:21:03;30.90;21.70
4103;DHT22;2065;49.790;9.620;2022-08-11T19:23:51;31.00;21.80
4103;DHT22;2065;49.790;9.620;2022-08-11T19:26:38;31.10;22.10
4103;DHT22;2065;49.790;9.620;2022-08-11T19:29:25;31.20;22.00
4103;DHT22;2065;49.790;9.620;2022-08-11T19:32:11;31.30;22.00
4103;DHT22;2065;49.790;9.620;2022-08-11T19:34:57;31.20;21.80
4103;DHT22;2065;49.790;9.620;2022-08-11T19:37:43;30.90;22.00
4103;DHT22;2065;49.790;9.620;2022-08-11T19:40:28;30.90;22.30
4103;DHT22;2065;49.790;9.620;2022-08-11T19:43:15;30.90;22.20
4103;DHT22;2065;49.790;9.620;2022-08-11T19:46:04;30.90;22.40
4103;DHT22;2065;49.790;9.620;2022-08-11T19:48:51;30.90;22.00
4103;DHT22;2065;49.790;9.620;2022-08-11T19:51:38;30.90;22.20
4103;DHT22;2065;49.790;9.620;2022-08-11T19:54:25;30.90;22.40
4103;DHT22;2065;49.790;9.620;2022-08-11T19:57:10;30.90;22.30
4103;DHT22;2065;49.790;9.620;2022-08-11T19:59:56;30.90;22.50
4103;DHT22;2065;49.790;9.620;2022-08-11T20:02:43;30.80;22.40
4103;DHT22;2065;49.790;9.620;2022-08-11T20:05:28;30.70;22.70
4103;DHT22;2065;49.790;9.620;2022-08-11T20:08:15;30.70;23.10
4103;DHT22;2065;49.790;9.620;2022-08-11T20:11:00;30.70;23.00
4103;DHT22;2065;49.790;9.620;2022-08-11T20:13:46;30.60;23.80
4103;DHT22;2065;49.790;9.620;2022-08-11T20:16:31;30.60;23.40
4103;DHT22;2065;49.790;9.620;2022-08-11T20:19:18;30.50;23.50
4103;DHT22;2065;49.790;9.620;2022-08-11T20:22:04;30.40;23.70
4103;DHT22;2065;49.790;9.620;2022-08-11T20:24:49;30.40;24.10
4103;DHT22;2065;49.790;9.620;2022-08-11T20:27:35;30.30;24.50
4103;DHT22;2065;49.790;9.620;2022-08-11T20:30:21;30.30;25.20
4103;DHT22;2065;49.790;9.620;2022-08-11T20:33:07;30.20;25.40
4103;DHT22;2065;49.790;9.620;2022-08-11T20:35:53;30.10;25.50
4103;DHT22;2065;49.790;9.620;2022-08-11T20:38:39;30.00;25.60
4103;DHT22;2065;49.790;9.620;2022-08-11T20:41:26;30.00;25.40
4103;DHT22;2065;49.790;9.620;2022-08-11T20:44:13;29.90;25.60
4103;DHT22;2065;49.790;9.620;2022-08-11T20:46:58;29.90;25.80
4103;DHT22;2065;49.790;9.620;2022-08-11T20:49:44;29.80;25.90
4103;DHT22;2065;49.790;9.620;2022-08-11T20:52:32;29.70;26.00
4103;DHT22;2065;49.790;9.620;2022-08-11T20:55:17;29.70;26.00
4103;DHT22;2065;49.790;9.620;2022-08-11T20:58:03;29.60;26.10
4103;DHT22;2065;49.790;9.620;2022-08-11T21:00:49;29.60;26.20
4103;DHT22;2065;49.790;9.620;2022-08-11T21:03:34;29.60;26.30
4103;DHT22;2065;49.790;9.620;2022-08-11T21:06:19;29.50;26.20
4103;DHT22;2065;49.790;9.620;2022-08-11T21:09:08;29.40;26.30
4103;DHT22;2065;49.790;9.620;2022-08-11T21:11:55;29.30;26.50
4103;DHT22;2065;49.790;9.620;2022-08-11T21:14:41;29.30;26.80
4103;DHT22;2065;49.790;9.620;2022-08-11T21:17:28;29.30;27.10
4103;DHT22;2065;49.790;9.620;2022-08-11T21:20:14;29.20;27.20
4103;DHT22;2065;49.790;9.620;2022-08-11T21:23:02;29.10;27.40
4103;DHT22;2065;49.790;9.620;2022-08-11T21:25:53;29.00;27.90
4103;DHT22;2065;49.790;9.620;2022-08-11T21:28:39;29.00;28.00
4103;DHT22;2065;49.790;9.620;2022-08-11T21:31:25;28.90;28.20
4103;DHT22;2065;49.790;9.620;2022-08-11T21:34:11;28.90;28.60
4103;DHT22;2065;49.790;9.620;2022-08-11T21:36:59;28.80;28.60
4103;DHT22;2065;49.790;9.620;2022-08-11T21:39:45;28.70;28.50
4103;DHT22;2065;49.790;9.620;2022-08-11T21:42:36;28.70;28.50
4103;DHT22;2065;49.790;9.620;2022-08-11T21:45:23;28.60;28.80